createdAt,value
2017-10-22T00:00:40.670Z,77.72
2017-10-22T00:03:10.951Z,77.48
2017-10-22T00:05:40.139Z,77.89
2017-10-22T00:08:09.423Z,77.91
2017-10-22T00:10:38.659Z,77.57
2017-10-22T00:13:07.868Z,77.52
2017-10-22T00:15:37.104Z,77.45
2017-10-22T00:18:06.283Z,77.69
2017-10-22T00:20:36.268Z,77.40
2017-10-22T00:23:05.446Z,77.83
2017-10-22T00:25:34.655Z,77.71
2017-10-22T00:28:03.867Z,77.50
2017-10-22T00:30:33.129Z,77.16
2017-10-22T00:33:02.447Z,77.35
2017-10-22T00:35:31.645Z,77.23
2017-10-22T00:38:00.849Z,76.96
2017-10-22T00:40:30.068Z,77.33
2017-10-22T00:42:59.642Z,77.17
2017-10-22T00:45:28.831Z,76.67
2017-10-22T00:47:58.024Z,77.13
2017-10-22T00:50:27.203Z,76.90
2017-10-22T00:52:56.395Z,76.95
2017-10-22T00:55:25.607Z,76.85
2017-10-22T00:57:54.816Z,76.63
2017-10-22T01:00:24.023Z,76.92
2017-10-22T01:02:53.484Z,76.55
2017-10-22T01:05:22.695Z,76.72
2017-10-22T01:07:51.889Z,76.53
2017-10-22T01:10:21.092Z,76.16
2017-10-22T01:12:50.271Z,76.30
2017-10-22T01:15:19.491Z,76.38
2017-10-22T01:17:48.678Z,76.48
2017-10-22T01:20:17.923Z,77.24
2017-10-22T01:22:47.122Z,77.15
2017-10-22T01:25:16.306Z,76.67
2017-10-22T01:27:45.519Z,76.49
2017-10-22T01:30:15.515Z,76.50
2017-10-22T01:32:44.724Z,76.86
2017-10-22T01:35:13.903Z,76.79
2017-10-22T01:37:43.127Z,76.49
2017-10-22T01:40:12.320Z,76.75
2017-10-22T01:42:41.531Z,76.27
2017-10-22T01:45:11.472Z,76.60
2017-10-22T01:47:41.517Z,76.37
2017-10-22T01:50:10.744Z,76.51
2017-10-22T01:52:39.931Z,75.56
2017-10-22T01:55:09.128Z,75.65
2017-10-22T01:57:38.322Z,75.35
2017-10-22T02:00:08.416Z,75.04
2017-10-22T02:02:37.609Z,74.99
2017-10-22T02:05:07.047Z,75.36
2017-10-22T02:07:36.250Z,74.74
2017-10-22T02:10:05.434Z,74.54
2017-10-22T02:12:34.627Z,74.72
2017-10-22T02:15:03.815Z,74.57
2017-10-22T02:17:33.794Z,74.68
2017-10-22T02:20:03.007Z,74.65
2017-10-22T02:22:32.219Z,74.40
2017-10-22T02:25:01.429Z,74.33
2017-10-22T02:27:30.627Z,74.78
2017-10-22T02:30:00.584Z,74.44
2017-10-22T02:32:30.012Z,73.89
2017-10-22T02:34:59.209Z,73.84
2017-10-22T02:37:29.275Z,73.96
2017-10-22T02:39:58.477Z,73.59
2017-10-22T02:42:27.667Z,73.80
2017-10-22T02:44:56.905Z,73.38
2017-10-22T02:47:26.855Z,73.21
2017-10-22T02:49:56.155Z,73.39
2017-10-22T02:52:25.360Z,73.91
2017-10-22T02:54:54.569Z,73.59
2017-10-22T02:57:23.755Z,73.90
2017-10-22T02:59:52.980Z,73.68
2017-10-22T03:02:22.188Z,73.38
2017-10-22T03:04:52.167Z,73.37
2017-10-22T03:07:21.646Z,73.42
2017-10-22T03:09:50.847Z,73.03
2017-10-22T03:12:20.127Z,72.74
2017-10-22T03:14:49.324Z,72.66
2017-10-22T03:17:18.533Z,72.14
2017-10-22T03:19:47.719Z,72.78
2017-10-22T03:22:16.923Z,72.09
2017-10-22T03:24:46.120Z,71.77
2017-10-22T03:27:15.322Z,71.05
2017-10-22T03:29:44.524Z,71.07
2017-10-22T03:32:13.747Z,70.86
2017-10-22T03:34:43.689Z,70.74
2017-10-22T03:37:13.660Z,70.97
2017-10-22T03:39:42.876Z,70.21
2017-10-22T03:42:12.059Z,70.65
2017-10-22T03:44:41.293Z,70.71
2017-10-22T03:47:10.447Z,70.38
2017-10-22T03:49:39.676Z,70.93
2017-10-22T03:52:08.883Z,70.44
2017-10-22T03:54:38.072Z,70.78
2017-10-22T03:57:07.284Z,70.18
2017-10-22T03:59:37.325Z,70.62
2017-10-22T04:02:06.595Z,70.46
2017-10-22T04:04:35.816Z,70.44
2017-10-22T04:07:05.025Z,70.36
2017-10-22T04:09:34.212Z,70.25
2017-10-22T04:12:03.411Z,70.40
2017-10-22T04:14:32.616Z,70.54
2017-10-22T04:17:01.812Z,69.99
2017-10-22T04:19:31.032Z,70.05
2017-10-22T04:22:00.244Z,70.28
2017-10-22T04:24:29.432Z,70.32
2017-10-22T04:26:58.660Z,69.69
2017-10-22T04:29:27.871Z,69.87
2017-10-22T04:31:57.881Z,69.94
2017-10-22T04:34:27.431Z,70.44
2017-10-22T04:36:56.663Z,71.29
2017-10-22T04:39:25.926Z,71.71
2017-10-22T04:41:55.875Z,71.84
2017-10-22T04:44:25.868Z,72.48
2017-10-22T04:46:55.088Z,72.48
2017-10-22T04:49:24.287Z,72.40
2017-10-22T04:51:53.495Z,73.09
2017-10-22T04:54:22.644Z,73.32
2017-10-22T04:56:51.852Z,73.41
2017-10-22T04:59:21.039Z,74.36
2017-10-22T05:01:50.264Z,74.84
2017-10-22T05:04:19.435Z,74.66
2017-10-22T05:06:48.627Z,75.08
2017-10-22T05:09:17.849Z,76.36
2017-10-22T05:11:47.055Z,76.79
2017-10-22T05:14:16.268Z,77.04
2017-10-22T05:16:45.465Z,77.46
2017-10-22T05:19:14.660Z,79.54
2017-10-22T05:21:43.878Z,80.16
2017-10-22T05:24:13.859Z,80.42
2017-10-22T05:26:43.395Z,80.65
2017-10-22T05:29:13.373Z,81.86
2017-10-22T05:31:42.561Z,82.02
2017-10-22T05:34:11.755Z,82.26
2017-10-22T05:36:41.041Z,83.20
2017-10-22T05:39:10.268Z,83.82
2017-10-22T05:41:39.451Z,84.31
2017-10-22T05:44:08.649Z,84.28
2017-10-22T05:46:37.844Z,84.02
2017-10-22T05:49:07.051Z,84.91
2017-10-22T05:51:36.252Z,85.26
2017-10-22T05:54:05.493Z,84.93
2017-10-22T05:56:35.455Z,84.80
2017-10-22T05:59:04.888Z,85.13
2017-10-22T06:01:34.151Z,85.65
2017-10-22T06:04:03.357Z,85.66
2017-10-22T06:06:32.544Z,85.60
2017-10-22T06:09:01.728Z,85.87
2017-10-22T06:11:30.947Z,86.37
2017-10-22T06:14:00.151Z,86.69
2017-10-22T06:16:29.364Z,86.58
2017-10-22T06:18:58.558Z,86.74
2017-10-22T06:21:27.789Z,86.57
2017-10-22T06:23:57.938Z,86.36
2017-10-22T06:26:27.245Z,86.97
2017-10-22T06:28:56.521Z,87.80
2017-10-22T06:31:25.738Z,87.34
2017-10-22T06:33:54.950Z,87.67
2017-10-22T06:36:24.275Z,87.80
2017-10-22T06:38:53.513Z,88.17
2017-10-22T06:41:23.492Z,87.92
2017-10-22T06:43:52.732Z,88.33
2017-10-22T06:46:21.943Z,88.15
2017-10-22T06:48:52.069Z,88.37
2017-10-22T06:51:21.264Z,88.49
2017-10-22T06:53:50.527Z,88.97
2017-10-22T06:56:20.512Z,88.66
2017-10-22T06:58:49.732Z,88.69
2017-10-22T07:01:18.995Z,88.63
2017-10-22T07:03:48.203Z,88.49
2017-10-22T07:06:17.410Z,87.88
2017-10-22T07:08:46.939Z,88.62
2017-10-22T07:11:16.312Z,88.38
2017-10-22T07:13:47.023Z,88.72
2017-10-22T07:16:16.239Z,88.55
2017-10-22T07:18:45.599Z,88.33
2017-10-22T07:21:14.868Z,88.33
2017-10-22T07:23:44.828Z,88.08
2017-10-22T07:26:14.054Z,88.59
2017-10-22T07:28:43.307Z,88.62
2017-10-22T07:31:12.506Z,88.42
2017-10-22T07:33:41.711Z,88.90
2017-10-22T07:36:11.121Z,88.93
2017-10-22T07:38:40.356Z,89.11
2017-10-22T07:41:09.548Z,89.03
2017-10-22T07:43:38.802Z,88.89
2017-10-22T07:46:08.031Z,89.41
2017-10-22T07:48:37.236Z,88.79
2017-10-22T07:51:07.952Z,88.87
2017-10-22T07:53:37.160Z,88.43
2017-10-22T07:56:06.355Z,88.68
2017-10-22T07:58:35.559Z,88.67
2017-10-22T08:01:05.548Z,88.76
2017-10-22T08:03:34.763Z,88.41
2017-10-22T08:06:04.933Z,88.85
2017-10-22T08:08:34.126Z,88.92
2017-10-22T08:11:04.104Z,88.79
2017-10-22T08:13:33.526Z,87.79
2017-10-22T08:16:03.520Z,87.99
2017-10-22T08:18:32.784Z,88.51
2017-10-22T08:21:01.972Z,88.10
2017-10-22T08:23:31.207Z,87.67
2017-10-22T08:26:00.412Z,87.22
2017-10-22T08:28:29.657Z,87.35
2017-10-22T08:30:59.697Z,87.21
2017-10-22T08:33:28.906Z,87.06
2017-10-22T08:35:58.097Z,87.03
2017-10-22T08:38:27.397Z,87.27
2017-10-22T08:40:56.615Z,86.47
2017-10-22T08:43:25.775Z,86.64
2017-10-22T08:45:55.224Z,86.91
2017-10-22T08:48:25.929Z,86.55
2017-10-22T08:50:55.096Z,86.33
2017-10-22T08:53:25.371Z,86.70
2017-10-22T08:55:54.584Z,86.74
2017-10-22T08:58:23.803Z,87.38
2017-10-22T09:00:53.788Z,86.54
2017-10-22T09:03:22.980Z,86.58
2017-10-22T09:05:53.724Z,86.75
2017-10-22T09:08:23.020Z,86.43
2017-10-22T09:10:52.232Z,86.70
2017-10-22T09:13:22.186Z,85.91
2017-10-22T09:15:52.200Z,86.30
2017-10-22T09:18:21.408Z,86.21
2017-10-22T09:20:50.633Z,85.26
2017-10-22T09:23:21.353Z,85.82
2017-10-22T09:25:50.576Z,84.93
2017-10-22T09:28:19.847Z,84.86
2017-10-22T09:30:49.043Z,84.32
2017-10-22T09:33:18.255Z,84.31
2017-10-22T09:35:47.438Z,83.84
2017-10-22T09:38:16.656Z,84.01
2017-10-22T09:40:45.852Z,83.69
2017-10-22T09:43:15.052Z,83.34
2017-10-22T09:45:45.769Z,83.49
2017-10-22T09:48:15.148Z,83.14
2017-10-22T09:50:44.332Z,82.28
2017-10-22T09:53:13.568Z,83.00
2017-10-22T09:55:42.851Z,82.83
2017-10-22T09:58:12.048Z,82.36
2017-10-22T10:00:41.251Z,82.83
2017-10-22T10:03:10.452Z,82.51
2017-10-22T10:05:39.674Z,82.44
2017-10-22T10:08:08.953Z,83.08
2017-10-22T10:10:38.164Z,83.02
2017-10-22T10:13:08.265Z,83.50
2017-10-22T10:15:37.525Z,84.02
2017-10-22T10:18:07.297Z,83.60
2017-10-22T10:20:36.522Z,83.75
2017-10-22T10:23:06.508Z,83.25
2017-10-22T10:25:35.720Z,82.72
2017-10-22T10:28:05.717Z,83.20
2017-10-22T10:30:36.435Z,83.17
2017-10-22T10:33:05.651Z,83.45
2017-10-22T10:35:34.880Z,83.88
2017-10-22T10:38:04.832Z,84.64
2017-10-22T10:40:34.075Z,84.21
2017-10-22T10:43:03.259Z,84.82
2017-10-22T10:45:32.556Z,84.75
2017-10-22T10:48:01.762Z,85.06
2017-10-22T10:50:31.799Z,85.33
2017-10-22T10:53:01.195Z,85.21
2017-10-22T10:55:31.315Z,85.47
2017-10-22T10:58:01.307Z,86.46
2017-10-22T11:00:30.552Z,86.00
2017-10-22T11:02:59.751Z,86.13
2017-10-22T11:05:28.973Z,86.13
2017-10-22T11:07:58.196Z,86.65
2017-10-22T11:10:27.444Z,86.76
2017-10-22T11:12:56.660Z,86.52
2017-10-22T11:15:25.873Z,86.72
2017-10-22T11:17:55.127Z,86.55
2017-10-22T11:20:25.108Z,86.31
2017-10-22T11:22:54.320Z,86.03
2017-10-22T11:25:24.295Z,85.71
2017-10-22T11:27:53.499Z,86.06
2017-10-22T11:30:22.767Z,85.46
2017-10-22T11:32:51.993Z,85.42
2017-10-22T11:35:21.261Z,86.12
2017-10-22T11:37:50.465Z,85.28
2017-10-22T11:40:19.739Z,84.75
2017-10-22T11:42:49.725Z,85.22
2017-10-22T11:45:18.928Z,85.11
2017-10-22T11:47:48.237Z,85.30
2017-10-22T11:50:18.204Z,86.06
2017-10-22T11:52:47.421Z,86.20
2017-10-22T11:55:16.649Z,86.09
2017-10-22T11:57:46.644Z,86.03
2017-10-22T12:00:15.868Z,86.33
2017-10-22T12:02:45.084Z,86.58
2017-10-22T12:05:14.458Z,86.63
2017-10-22T12:07:44.440Z,87.05
2017-10-22T12:10:13.664Z,87.02
2017-10-22T12:12:42.908Z,87.25
2017-10-22T12:15:12.107Z,87.16
2017-10-22T12:17:41.324Z,86.85
2017-10-22T12:20:10.560Z,86.86
2017-10-22T12:22:40.564Z,86.88
2017-10-22T12:25:09.771Z,86.81
2017-10-22T12:27:39.756Z,87.31
2017-10-22T12:30:09.022Z,86.53
2017-10-22T12:32:38.299Z,86.64
2017-10-22T12:35:07.527Z,86.16
2017-10-22T12:37:36.964Z,86.42
2017-10-22T12:40:06.447Z,86.41
2017-10-22T12:42:35.987Z,86.55
2017-10-22T12:45:06.063Z,86.29
2017-10-22T12:47:35.284Z,86.71
2017-10-22T12:50:04.525Z,86.46
2017-10-22T12:52:34.481Z,86.63
2017-10-22T12:55:03.704Z,86.26
2017-10-22T12:57:34.429Z,86.04
2017-10-22T13:00:03.715Z,85.38
2017-10-22T13:02:33.018Z,86.55
2017-10-22T13:05:02.292Z,86.27
2017-10-22T13:07:31.492Z,85.86
2017-10-22T13:10:00.851Z,85.64
2017-10-22T13:12:30.073Z,85.51
2017-10-22T13:14:59.298Z,85.37
2017-10-22T13:17:28.619Z,85.74
2017-10-22T13:19:59.352Z,85.06
2017-10-22T13:22:28.772Z,84.63
2017-10-22T13:24:58.759Z,85.08
2017-10-22T13:27:27.955Z,84.72
2017-10-22T13:29:57.304Z,85.37
2017-10-22T13:32:26.619Z,85.03
2017-10-22T13:34:55.846Z,85.17
2017-10-22T13:37:25.055Z,85.24
2017-10-22T13:39:54.281Z,83.95
2017-10-22T13:42:23.464Z,83.78
2017-10-22T13:44:53.673Z,84.05
2017-10-22T13:47:22.889Z,84.28
2017-10-22T13:49:52.871Z,84.05
2017-10-22T13:52:22.099Z,83.11
2017-10-22T13:54:51.355Z,83.32
2017-10-22T13:57:20.712Z,83.16
2017-10-22T13:59:49.894Z,83.25
2017-10-22T14:02:20.637Z,82.43
2017-10-22T14:04:50.644Z,82.73
2017-10-22T14:07:21.414Z,82.02
2017-10-22T14:09:50.667Z,82.26
2017-10-22T14:12:19.878Z,81.65
2017-10-22T14:14:49.125Z,82.06
2017-10-22T14:17:18.357Z,82.26
2017-10-22T14:19:48.333Z,82.26
2017-10-22T14:22:17.672Z,82.30
2017-10-22T14:24:46.993Z,82.70
2017-10-22T14:27:16.221Z,81.91
2017-10-22T14:29:45.471Z,82.61
2017-10-22T14:32:14.702Z,82.80
2017-10-22T14:34:44.831Z,83.00
2017-10-22T14:37:14.805Z,82.67
2017-10-22T14:39:44.025Z,82.53
2017-10-22T14:42:14.004Z,82.47
2017-10-22T14:44:43.251Z,81.54
2017-10-22T14:47:12.456Z,81.76
2017-10-22T14:49:41.663Z,81.88
2017-10-22T14:52:10.983Z,81.28
2017-10-22T14:54:40.220Z,81.35
2017-10-22T14:57:10.956Z,81.40
2017-10-22T14:59:41.015Z,81.51
2017-10-22T15:02:10.326Z,81.21
2017-10-22T15:04:39.515Z,81.24
2017-10-22T15:07:08.711Z,81.75
2017-10-22T15:09:37.945Z,81.10
2017-10-22T15:12:07.177Z,81.03
2017-10-22T15:14:37.164Z,81.08
2017-10-22T15:17:06.376Z,80.93
2017-10-22T15:19:35.605Z,81.13
2017-10-22T15:22:04.892Z,81.21
2017-10-22T15:24:34.888Z,80.19
2017-10-22T15:27:04.180Z,80.72
2017-10-22T15:29:33.417Z,80.10
2017-10-22T15:32:02.722Z,80.80
2017-10-22T15:34:32.721Z,80.70
2017-10-22T15:37:02.793Z,80.23
2017-10-22T15:39:32.040Z,79.70
2017-10-22T15:42:02.075Z,80.76
2017-10-22T15:44:32.447Z,80.30
2017-10-22T15:47:02.038Z,80.38
2017-10-22T15:49:31.257Z,80.16
2017-10-22T15:52:00.517Z,80.60
2017-10-22T15:54:29.719Z,80.73
2017-10-22T15:56:58.946Z,80.68
2017-10-22T15:59:28.123Z,80.41
2017-10-22T16:01:57.332Z,80.25
2017-10-22T16:04:26.546Z,80.48
2017-10-22T16:06:55.747Z,80.18
2017-10-22T16:09:25.074Z,80.55
2017-10-22T16:11:55.067Z,80.48
2017-10-22T16:14:25.804Z,80.91
2017-10-22T16:16:55.000Z,80.82
2017-10-22T16:19:25.008Z,80.46
2017-10-22T16:21:54.234Z,80.07
2017-10-22T16:24:23.443Z,80.35
2017-10-22T16:26:52.656Z,81.29
2017-10-22T16:29:21.867Z,81.27
2017-10-22T16:31:51.088Z,81.51
2017-10-22T16:34:20.380Z,81.26
2017-10-22T16:36:49.613Z,81.75
2017-10-22T16:39:19.584Z,81.14
2017-10-22T16:41:48.799Z,81.09
2017-10-22T16:44:18.267Z,81.80
2017-10-22T16:46:47.490Z,81.86
2017-10-22T16:49:16.665Z,81.58
2017-10-22T16:51:45.875Z,82.14
2017-10-22T16:54:15.110Z,81.90
2017-10-22T16:56:45.102Z,82.00
2017-10-22T16:59:14.365Z,82.01
2017-10-22T17:01:43.558Z,82.24
2017-10-22T17:04:12.807Z,82.04
2017-10-22T17:06:42.096Z,81.93
2017-10-22T17:09:12.329Z,82.25
2017-10-22T17:11:41.542Z,81.95
2017-10-22T17:14:11.697Z,82.09
2017-10-22T17:16:40.899Z,82.17
2017-10-22T17:19:10.326Z,81.94
2017-10-22T17:21:39.582Z,82.51
2017-10-22T17:24:09.601Z,82.24
2017-10-22T17:26:38.836Z,82.95
2017-10-22T17:29:08.072Z,82.91
2017-10-22T17:31:38.045Z,82.76
2017-10-22T17:34:07.270Z,82.74
2017-10-22T17:36:36.470Z,82.65
2017-10-22T17:39:05.959Z,82.56
2017-10-22T17:41:35.152Z,82.69
2017-10-22T17:44:04.395Z,82.66
2017-10-22T17:46:34.667Z,82.56
2017-10-22T17:49:04.096Z,82.61
2017-10-22T17:51:33.403Z,82.20
2017-10-22T17:54:02.843Z,82.39
2017-10-22T17:56:32.797Z,82.44
2017-10-22T17:59:02.034Z,81.97
2017-10-22T18:01:32.016Z,82.37
2017-10-22T18:04:01.274Z,81.92
2017-10-22T18:06:30.752Z,82.11
2017-10-22T18:08:59.930Z,82.44
2017-10-22T18:11:29.932Z,82.08
2017-10-22T18:13:59.172Z,82.37
2017-10-22T18:16:28.373Z,82.52
2017-10-22T18:18:57.826Z,82.08
2017-10-22T18:21:27.100Z,82.18
2017-10-22T18:23:56.349Z,82.26
2017-10-22T18:26:26.387Z,82.03
2017-10-22T18:28:55.641Z,82.37
2017-10-22T18:31:24.995Z,82.36
2017-10-22T18:33:54.221Z,82.23
2017-10-22T18:36:23.436Z,82.32
2017-10-22T18:38:52.755Z,81.93
2017-10-22T18:41:22.836Z,81.97
2017-10-22T18:43:52.351Z,81.70
2017-10-22T18:46:21.584Z,81.83
2017-10-22T18:48:50.889Z,81.71
2017-10-22T18:51:20.112Z,81.71
2017-10-22T18:53:49.332Z,81.21
2017-10-22T18:56:18.604Z,81.42
2017-10-22T18:58:47.864Z,81.30
2017-10-22T19:01:17.856Z,81.67
2017-10-22T19:03:47.099Z,81.22
2017-10-22T19:06:16.582Z,81.61
2017-10-22T19:08:47.378Z,81.33
2017-10-22T19:11:16.709Z,80.90
2017-10-22T19:13:46.755Z,80.78
2017-10-22T19:16:16.100Z,80.52
2017-10-22T19:18:45.332Z,80.88
2017-10-22T19:21:15.320Z,80.21
2017-10-22T19:23:44.663Z,80.51
2017-10-22T19:26:14.696Z,80.01
2017-10-22T19:28:44.005Z,80.21
2017-10-22T19:31:13.267Z,80.15
2017-10-22T19:33:43.328Z,80.00
2017-10-22T19:36:12.895Z,79.95
2017-10-22T19:38:42.913Z,80.25
2017-10-22T19:41:12.913Z,79.87
2017-10-22T19:43:43.636Z,79.98
2017-10-22T19:46:13.663Z,80.43
2017-10-22T19:48:42.920Z,80.62
2017-10-22T19:51:12.192Z,80.74
2017-10-22T19:53:41.436Z,80.11
2017-10-22T19:56:10.699Z,80.73
2017-10-22T19:58:39.977Z,80.28
2017-10-22T20:01:10.000Z,80.43
2017-10-22T20:03:39.239Z,80.70
2017-10-22T20:06:08.452Z,80.05
2017-10-22T20:08:37.684Z,79.81
2017-10-22T20:11:06.919Z,80.10
2017-10-22T20:13:36.259Z,79.91
2017-10-22T20:16:05.611Z,79.74
2017-10-22T20:18:34.944Z,79.67
2017-10-22T20:21:04.469Z,79.70
2017-10-22T20:23:34.462Z,79.67
2017-10-22T20:26:03.718Z,79.64
2017-10-22T20:28:32.960Z,79.98
2017-10-22T20:31:02.171Z,79.92
2017-10-22T20:33:31.452Z,80.12
2017-10-22T20:36:00.687Z,80.10
2017-10-22T20:38:30.690Z,80.17
2017-10-22T20:41:00.180Z,80.02
2017-10-22T20:43:29.440Z,79.71
2017-10-22T20:45:59.479Z,80.32
2017-10-22T20:48:28.717Z,80.49
2017-10-22T20:50:58.704Z,79.90
2017-10-22T20:53:27.955Z,79.95
2017-10-22T20:55:57.184Z,79.96
2017-10-22T20:58:26.431Z,80.51
2017-10-22T21:00:56.412Z,80.59
2017-10-22T21:03:25.693Z,80.20
2017-10-22T21:05:54.911Z,80.23
2017-10-22T21:08:24.181Z,80.66
2017-10-22T21:10:53.432Z,80.99
2017-10-22T21:13:22.647Z,81.16
2017-10-22T21:15:52.638Z,81.37
2017-10-22T21:18:21.855Z,81.45
2017-10-22T21:20:51.805Z,81.56
2017-10-22T21:23:21.049Z,81.53
2017-10-22T21:25:50.263Z,80.83
2017-10-22T21:28:20.243Z,81.05
2017-10-22T21:30:49.731Z,81.00
2017-10-22T21:33:18.939Z,81.53
2017-10-22T21:35:48.164Z,81.61
2017-10-22T21:38:18.170Z,81.52
2017-10-22T21:40:47.364Z,81.55
2017-10-22T21:43:16.816Z,81.75
2017-10-22T21:45:46.027Z,81.91
2017-10-22T21:48:15.235Z,81.79
2017-10-22T21:50:44.461Z,81.61
2017-10-22T21:53:13.683Z,81.75
2017-10-22T21:55:43.171Z,81.49
2017-10-22T21:58:12.392Z,81.28
2017-10-22T22:00:42.387Z,81.61
2017-10-22T22:03:11.581Z,81.42
2017-10-22T22:05:41.572Z,81.43
2017-10-22T22:08:11.061Z,81.20
2017-10-22T22:10:40.276Z,80.84
2017-10-22T22:13:09.480Z,80.75
2017-10-22T22:15:38.671Z,81.13
2017-10-22T22:18:07.906Z,81.12
2017-10-22T22:20:37.088Z,81.09
2017-10-22T22:23:07.108Z,81.36
2017-10-22T22:25:37.151Z,81.01
2017-10-22T22:28:06.423Z,81.52
2017-10-22T22:30:35.628Z,81.18
2017-10-22T22:33:05.611Z,80.91
2017-10-22T22:35:34.836Z,80.92
2017-10-22T22:38:04.038Z,81.09
2017-10-22T22:40:34.049Z,81.19
2017-10-22T22:43:03.299Z,81.06
2017-10-22T22:45:32.496Z,80.82
2017-10-22T22:48:01.697Z,80.67
2017-10-22T22:50:30.953Z,81.37
2017-10-22T22:53:00.936Z,81.25
2017-10-22T22:55:30.136Z,81.02
2017-10-22T22:57:59.335Z,81.06
2017-10-22T23:00:28.787Z,81.08
2017-10-22T23:02:58.030Z,80.85
2017-10-22T23:05:27.227Z,81.12
2017-10-22T23:07:57.964Z,81.46
2017-10-22T23:10:27.186Z,81.45
2017-10-22T23:12:57.213Z,81.27
2017-10-22T23:15:27.304Z,81.17
2017-10-22T23:17:56.535Z,81.59
2017-10-22T23:20:25.870Z,81.80
2017-10-22T23:22:55.064Z,81.47
2017-10-22T23:25:24.274Z,81.56
2017-10-22T23:27:53.489Z,81.70
2017-10-22T23:30:22.707Z,81.23
2017-10-22T23:32:52.764Z,80.94
2017-10-22T23:35:21.963Z,80.89
2017-10-22T23:37:52.001Z,81.18
2017-10-22T23:40:21.419Z,81.11
2017-10-22T23:42:50.675Z,80.77
2017-10-22T23:45:19.881Z,80.42
2017-10-22T23:47:49.088Z,80.70
2017-10-22T23:50:18.308Z,81.15
2017-10-22T23:52:48.309Z,81.25
2017-10-22T23:55:17.492Z,81.12
2017-10-22T23:57:46.870Z,81.08
